Airfield :
LOGIN :

Register | Disclaimer

   EN    FR    IT 

 










Legend :    VFR   Marginal VFR   IFR   Intensive IFR   Very Intensive IFR
Visi :
Ceiling :
>= 8 km
>= 3000ft
5 to 8 km
1000 to 3000 ft
1500m to 5 km
500 to 1000 ft
800 to 1500m
200 to 500 ft
< 800m
< 200 ft
Symbols :   Thunderstorms  Fog  Heavy snow  Heavy precipitations  Wind > 20 kt
SIGMETs :     Misc.  Thunderstorms  Icing  Turbulence  Mountain Waves  Volcanic Ashes






- Airport Elevation : 256 ft
- IATA code : KUN


EYKA - Kaunas

CURRENT METAR :
  • 280820Z 27005KT 210V020 9999 SCT033 17/09 Q1023

EXPIRED METARs :
  • 280750Z VRB03KT CAVOK 17/08 Q1023
  • 280720Z VRB04KT CAVOK 17/08 Q1023
  • 280650Z VRB05KT CAVOK 16/09 Q1024
  • 280620Z 30007KT 240V020 CAVOK 15/09 Q1024
  • 280550Z 34005KT 290V070 CAVOK 15/08 Q1024

TAF TAF EYKA
Valid from the 28 at 06:00 until the 29 at 06:00 UTC


280501Z 2806/2906 VRB05KT 9000 BKN030
TEMPO 2809/2811 BKN020CB
FM281100 36015KT
TEMPO 2811/2818 3000 TSRA BKN005 BKN015CB
TEMPO 2822/2903 SCT005



MET'MAP, your aeronautical weather chart ! - Copyright ORBIFLY December 2007 - Disclaimer

ORBIFLY MET'MAP TEAM :

Programming & Development : Alexandra Zaïnal
Concept & original design : Baudouin d'Aumeries
Assistance for programming : Marc-Olivier Méhu
Technical & hardware support : Manuel Goepfert

Contact : metmap@orbifly.com




SOURCES & CREDITS :

   NOAA